Time;durP1;ratioP1;P1;durP2;ratioP2;P2;SDS_P1;SDS_P2;PMS_P1;PMS_P2;Temp;Humidity;BMP_temperature;BMP_pressure;BME280_temperature;BME280_humidity;BME280_pressure;Samples;Min_cycle;Max_cycle;Signal;HPM_P1;HPM_P2
2023/03/08 00:01:44;;;;;;;12.18;8.90;;;6.40;81.70;;;;;;6274263;28;20060;-78
2023/03/08 00:04:47;;;;;;;15.15;9.07;;;6.30;82.10;;;;;;6274273;28;20052;-78
2023/03/08 00:07:52;;;;;;;14.38;9.93;;;6.30;82.40;;;;;;6273682;28;20052;-78
2023/03/08 00:10:53;;;;;;;15.02;9.10;;;6.20;82.80;;;;;;6273623;28;20142;-78
2023/03/08 00:13:55;;;;;;;13.10;8.55;;;6.20;83.20;;;;;;6274068;28;20439;-78
2023/03/08 00:16:57;;;;;;;13.25;9.82;;;6.10;83.20;;;;;;6272547;28;20041;-78
2023/03/08 00:20:00;;;;;;;16.25;9.00;;;6.10;83.40;;;;;;6272929;28;20048;-78
2023/03/08 00:23:02;;;;;;;10.60;7.82;;;6.00;83.50;;;;;;6272824;28;20037;-78
2023/03/08 00:26:04;;;;;;;12.93;8.38;;;6.00;83.50;;;;;;6273278;28;20451;-77
2023/03/08 00:29:06;;;;;;;14.85;9.15;;;6.00;83.50;;;;;;6273668;28;20047;-78
2023/03/08 00:32:07;;;;;;;11.77;9.35;;;5.90;83.40;;;;;;6273676;28;20126;-78
2023/03/08 00:35:10;;;;;;;15.63;7.68;;;5.90;83.50;;;;;;6273113;28;20525;-78
2023/03/08 00:38:12;;;;;;;16.55;9.68;;;5.80;83.50;;;;;;6273562;28;20045;-79
2023/03/08 00:41:14;;;;;;;12.63;8.45;;;5.70;83.60;;;;;;6274226;28;20048;-78
2023/03/08 00:44:16;;;;;;;14.00;10.05;;;5.70;83.70;;;;;;6274824;28;20072;-78
2023/03/08 00:47:18;;;;;;;13.00;9.27;;;5.60;83.90;;;;;;6275215;28;20487;-78
2023/03/08 00:50:21;;;;;;;13.73;9.05;;;5.60;84.00;;;;;;6275344;28;20513;-78
2023/03/08 00:53:22;;;;;;;14.55;8.45;;;5.60;84.20;;;;;;6275072;28;20052;-78
2023/03/08 00:56:24;;;;;;;13.02;8.07;;;5.50;84.30;;;;;;6275076;28;20052;-78
2023/03/08 00:59:26;;;;;;;11.20;8.48;;;5.50;84.40;;;;;;6275062;28;20045;-78
2023/03/08 01:02:27;;;;;;;13.82;8.50;;;5.40;84.40;;;;;;6269241;28;20476;-78
2023/03/08 01:05:30;;;;;;;17.60;9.73;;;5.40;84.70;;;;;;6259911;28;20040;-77
2023/03/08 01:08:32;;;;;;;15.57;8.95;;;5.40;84.60;;;;;;6274249;28;20045;-78
2023/03/08 01:11:35;;;;;;;19.10;10.73;;;5.40;84.70;;;;;;6273264;28;20037;-78
2023/03/08 01:14:38;;;;;;;13.55;9.80;;;5.30;84.80;;;;;;6296747;23;20585;-83
2023/03/08 01:17:39;;;;;;;15.30;8.93;;;5.30;85.00;;;;;;6275636;28;20060;-83
2023/03/08 01:20:43;;;;;;;12.98;8.95;;;5.30;85.00;;;;;;6273348;28;20055;-81
2023/03/08 01:23:44;;;;;;;16.20;9.18;;;5.30;85.10;;;;;;6272877;28;20041;-81
2023/03/08 01:26:46;;;;;;;13.90;8.27;;;5.30;85.10;;;;;;6272852;28;20498;-82
2023/03/08 01:29:48;;;;;;;17.95;9.13;;;5.20;85.30;;;;;;6272712;28;20652;-82
2023/03/08 01:32:50;;;;;;;17.95;9.43;;;5.20;85.30;;;;;;6274475;28;20045;-83
2023/03/08 01:35:53;;;;;;;14.38;8.68;;;5.20;85.50;;;;;;6273435;28;20047;-84
2023/03/08 01:38:55;;;;;;;12.40;7.88;;;5.10;85.70;;;;;;6287713;28;20328;-83
2023/03/08 01:41:57;;;;;;;14.70;9.10;;;5.10;85.80;;;;;;6284263;28;20059;-84
2023/03/08 01:45:00;;;;;;;14.93;9.35;;;5.10;85.80;;;;;;6275744;28;20142;-84
2023/03/08 01:48:02;;;;;;;12.65;8.95;;;5.00;86.00;;;;;;6274878;28;20045;-84
2023/03/08 01:51:07;;;;;;;16.90;9.02;;;5.10;85.90;;;;;;6274899;28;20044;-83
2023/03/08 01:54:14;;;;;;;13.05;8.60;;;5.00;86.10;;;;;;6276076;28;20049;-84
2023/03/08 01:57:19;;;;;;;15.02;8.02;;;5.00;86.30;;;;;;6273828;28;20041;-84
2023/03/08 02:00:23;;;;;;;14.77;8.68;;;5.00;86.30;;;;;;6274203;28;20052;-83
2023/03/08 02:03:25;;;;;;;10.48;8.60;;;5.00;86.40;;;;;;6273505;28;20041;-83
2023/03/08 02:06:28;;;;;;;15.15;8.43;;;4.90;86.50;;;;;;6273704;28;20507;-83
2023/03/08 02:09:30;;;;;;;13.77;8.55;;;5.00;86.60;;;;;;6273194;28;20048;-81
2023/03/08 02:12:33;;;;;;;15.10;9.00;;;5.00;86.90;;;;;;6273135;28;20056;-81
2023/03/08 02:15:35;;;;;;;13.80;8.05;;;5.00;86.90;;;;;;6272703;28;20048;-81
2023/03/08 02:18:36;;;;;;;15.55;8.73;;;5.10;86.80;;;;;;6273293;28;20060;-83
2023/03/08 02:21:40;;;;;;;14.55;8.95;;;5.10;87.00;;;;;;6273717;28;20060;-82
2023/03/08 02:24:43;;;;;;;14.32;9.90;;;5.10;87.00;;;;;;6276577;28;20065;-81
2023/03/08 02:27:45;;;;;;;15.15;9.30;;;5.30;87.10;;;;;;6276832;28;20041;-82
2023/03/08 02:30:47;;;;;;;14.40;9.23;;;5.30;87.00;;;;;;6277537;28;20049;-82
2023/03/08 02:33:49;;;;;;;14.45;9.43;;;5.40;86.90;;;;;;6278049;28;20057;-84
2023/03/08 02:36:50;;;;;;;13.32;8.65;;;5.40;86.80;;;;;;6276934;28;20047;-84
2023/03/08 02:39:53;;;;;;;11.75;8.27;;;5.50;86.70;;;;;;6277295;28;20041;-83
2023/03/08 02:42:55;;;;;;;12.30;9.43;;;5.50;86.50;;;;;;6277431;28;20051;-80
2023/03/08 02:45:57;;;;;;;15.15;8.98;;;5.50;86.50;;;;;;6276795;28;20085;-84
2023/03/08 02:48:58;;;;;;;11.20;8.65;;;5.60;86.50;;;;;;6276583;28;20499;-84
2023/03/08 02:52:00;;;;;;;12.10;7.15;;;5.60;86.40;;;;;;6277030;28;20365;-83
2023/03/08 02:55:04;;;;;;;13.93;8.32;;;5.60;86.30;;;;;;6277081;28;20041;-82
2023/03/08 02:58:07;;;;;;;16.33;9.35;;;5.60;86.20;;;;;;6277332;28;20045;-85
2023/03/08 03:01:12;;;;;;;18.90;9.63;;;5.60;86.10;;;;;;6276571;28;20059;-82
2023/03/08 03:04:14;;;;;;;15.30;8.93;;;5.60;86.00;;;;;;6276831;28;20052;-84
2023/03/08 03:07:15;;;;;;;16.15;9.50;;;5.60;86.00;;;;;;6277337;28;20045;-84
2023/03/08 03:10:18;;;;;;;11.68;8.80;;;5.50;86.00;;;;;;6278259;28;20053;-82
2023/03/08 03:13:20;;;;;;;12.27;8.55;;;5.50;86.20;;;;;;6276459;28;20049;-84
2023/03/08 03:16:22;;;;;;;13.82;8.50;;;5.40;86.30;;;;;;6277288;28;20132;-82
2023/03/08 03:19:24;;;;;;;11.60;8.15;;;5.30;86.40;;;;;;6277110;28;20044;-84
2023/03/08 03:22:25;;;;;;;12.82;8.93;;;5.30;86.60;;;;;;6277737;28;20048;-82
2023/03/08 03:25:29;;;;;;;13.15;8.27;;;5.20;86.60;;;;;;6276842;28;20045;-83
2023/03/08 03:28:30;;;;;;;18.40;8.65;;;5.10;86.70;;;;;;6277475;28;20145;-82
2023/03/08 03:31:33;;;;;;;14.18;9.20;;;5.10;86.80;;;;;;6277246;28;20063;-82
2023/03/08 03:34:34;;;;;;;13.25;8.25;;;5.10;87.00;;;;;;6276978;28;20045;-82
2023/03/08 03:37:36;;;;;;;13.57;8.70;;;5.10;87.20;;;;;;6276703;28;20056;-82
2023/03/08 03:40:39;;;;;;;12.70;8.52;;;5.10;87.20;;;;;;6276949;28;20048;-85
2023/03/08 03:43:42;;;;;;;13.35;10.07;;;5.20;87.30;;;;;;6283003;28;20375;-84
2023/03/08 03:46:43;;;;;;;14.80;9.68;;;5.20;87.30;;;;;;6279929;28;20063;-84
2023/03/08 03:49:45;;;;;;;14.07;9.98;;;5.20;88.10;;;;;;6278148;28;20045;-85
2023/03/08 03:52:47;;;;;;;13.48;9.30;;;5.20;87.60;;;;;;6276975;28;20049;-84
2023/03/08 03:55:50;;;;;;;12.65;8.70;;;5.20;87.60;;;;;;6276880;28;20056;-83
2023/03/08 03:58:52;;;;;;;13.32;8.35;;;5.20;87.60;;;;;;6276570;28;20048;-83
2023/03/08 04:01:54;;;;;;;14.38;9.75;;;5.20;87.70;;;;;;6276083;28;20129;-82
2023/03/08 04:04:56;;;;;;;14.50;8.70;;;5.20;87.80;;;;;;6275655;28;20045;-84
2023/03/08 04:07:57;;;;;;;20.38;9.52;;;5.20;87.90;;;;;;6275260;28;20052;-83
2023/03/08 04:11:01;;;;;;;15.65;9.25;;;5.20;88.00;;;;;;6275143;28;20052;-84
2023/03/08 04:14:03;;;;;;;13.60;8.30;;;5.20;88.10;;;;;;6275665;28;20431;-84
2023/03/08 04:17:05;;;;;;;20.30;11.10;;;5.20;88.20;;;;;;6274421;28;20060;-82
2023/03/08 04:20:08;;;;;;;15.20;9.75;;;5.20;88.30;;;;;;6274545;28;20044;-83
2023/03/08 04:23:10;;;;;;;18.30;10.45;;;5.20;88.20;;;;;;6274397;28;20487;-82
2023/03/08 04:26:13;;;;;;;14.25;8.88;;;5.30;88.30;;;;;;6274180;28;20060;-82
2023/03/08 04:29:14;;;;;;;13.85;9.68;;;5.30;88.40;;;;;;6274183;28;20045;-83
2023/03/08 04:32:16;;;;;;;14.52;9.18;;;5.30;88.40;;;;;;6274664;28;20045;-82
2023/03/08 04:35:19;;;;;;;12.45;9.32;;;5.30;88.60;;;;;;6273595;28;20493;-82
2023/03/08 04:38:21;;;;;;;12.50;9.23;;;5.30;88.70;;;;;;6273837;28;20371;-83
2023/03/08 04:41:25;;;;;;;14.25;9.30;;;5.30;88.70;;;;;;6274156;28;20049;-84
2023/03/08 04:44:26;;;;;;;19.27;12.63;;;5.20;88.80;;;;;;6273783;28;20056;-82
2023/03/08 04:47:28;;;;;;;15.20;10.50;;;5.20;89.00;;;;;;6273533;28;20045;-82
2023/03/08 04:50:30;;;;;;;15.75;9.73;;;5.20;89.00;;;;;;6275402;28;20051;-85
2023/03/08 04:53:32;;;;;;;12.05;7.82;;;5.30;89.20;;;;;;6274237;28;20056;-82
2023/03/08 04:56:35;;;;;;;13.57;8.75;;;5.30;89.30;;;;;;6273279;28;20390;-84
2023/03/08 04:59:37;;;;;;;15.38;10.13;;;5.30;89.30;;;;;;6275250;28;20044;-82
2023/03/08 05:02:38;;;;;;;14.10;8.98;;;5.30;89.50;;;;;;6277190;28;20080;-82
2023/03/08 05:05:45;;;;;;;12.45;8.57;;;5.30;89.60;;;;;;6280441;28;20068;-82
2023/03/08 05:08:47;;;;;;;18.92;10.77;;;5.30;89.70;;;;;;6280586;28;20041;-82
2023/03/08 05:11:50;;;;;;;15.52;9.48;;;5.30;89.70;;;;;;6280141;28;20048;-83
2023/03/08 05:14:51;;;;;;;16.70;8.93;;;5.30;89.90;;;;;;6280806;28;20398;-82
2023/03/08 05:17:53;;;;;;;15.52;9.88;;;5.30;90.00;;;;;;6280827;28;20055;-83
2023/03/08 05:20:56;;;;;;;13.20;10.05;;;5.20;90.00;;;;;;6280777;28;20064;-82
2023/03/08 05:23:59;;;;;;;14.73;11.27;;;5.20;90.10;;;;;;6281256;28;20049;-83
2023/03/08 05:27:02;;;;;;;15.32;9.45;;;5.20;90.10;;;;;;6277018;28;20075;-80
2023/03/08 05:30:05;;;;;;;30.45;11.02;;;5.20;90.20;;;;;;6276237;28;20045;-81
2023/03/08 05:33:06;;;;;;;13.15;10.60;;;5.20;90.20;;;;;;6280771;28;20044;-82
2023/03/08 05:36:10;;;;;;;16.52;10.00;;;5.30;90.30;;;;;;6283875;28;20045;-82
2023/03/08 05:39:12;;;;;;;15.45;9.48;;;5.20;90.30;;;;;;6279015;28;20064;-82
2023/03/08 05:42:15;;;;;;;15.93;9.77;;;5.20;90.30;;;;;;6277625;28;20132;-82
2023/03/08 05:45:16;;;;;;;15.75;9.68;;;5.20;90.40;;;;;;6276319;28;20071;-82
2023/03/08 05:48:18;;;;;;;19.20;10.13;;;5.20;90.40;;;;;;6277225;28;20049;-83
2023/03/08 05:51:20;;;;;;;12.85;9.48;;;5.20;90.50;;;;;;6277175;28;20053;-82
2023/03/08 05:54:22;;;;;;;14.32;9.85;;;5.20;90.50;;;;;;6276904;28;20053;-82
2023/03/08 05:57:25;;;;;;;15.93;11.35;;;5.20;90.50;;;;;;6277611;28;20045;-83
2023/03/08 06:00:27;;;;;;;17.67;9.85;;;5.20;90.50;;;;;;6281291;28;20511;-82
2023/03/08 06:03:29;;;;;;;21.08;12.35;;;5.30;90.50;;;;;;6281681;28;20503;-83
2023/03/08 06:06:31;;;;;;;16.98;10.52;;;5.30;90.60;;;;;;6281991;28;20049;-81
2023/03/08 06:09:32;;;;;;;12.73;10.00;;;5.30;90.60;;;;;;6282381;28;20037;-82
2023/03/08 06:12:35;;;;;;;15.82;11.90;;;5.30;90.60;;;;;;6282549;28;20060;-81
2023/03/08 06:15:37;;;;;;;18.15;11.30;;;5.30;90.60;;;;;;6282551;28;20047;-81
2023/03/08 06:18:41;;;;;;;17.88;10.32;;;5.30;90.70;;;;;;6281129;28;20041;-82
2023/03/08 06:21:43;;;;;;;15.13;9.35;;;5.40;90.70;;;;;;6281716;28;20515;-82
2023/03/08 06:24:48;;;;;;;16.00;11.10;;;5.40;90.70;;;;;;6280870;28;20045;-82
2023/03/08 06:27:51;;;;;;;17.75;9.90;;;5.40;90.80;;;;;;6280721;28;20055;-80
2023/03/08 06:30:53;;;;;;;17.60;12.18;;;5.40;90.90;;;;;;6281401;28;20052;-82
2023/03/08 06:33:54;;;;;;;16.42;10.77;;;5.40;91.10;;;;;;6279594;28;20049;-81
2023/03/08 06:36:58;;;;;;;21.48;13.38;;;5.40;91.60;;;;;;6279613;28;20044;-81
2023/03/08 06:40:00;;;;;;;20.98;11.27;;;5.40;92.00;;;;;;6278338;28;20094;-80
2023/03/08 06:43:03;;;;;;;22.23;12.73;;;5.40;92.30;;;;;;6278153;28;20102;-82
2023/03/08 06:46:05;;;;;;;22.40;12.40;;;5.30;92.90;;;;;;6278228;28;20057;-81
2023/03/08 06:49:08;;;;;;;18.45;12.30;;;5.30;93.20;;;;;;6278394;28;20045;-83
2023/03/08 06:52:09;;;;;;;21.77;11.82;;;5.20;93.60;;;;;;6280964;28;20044;-81
2023/03/08 06:55:11;;;;;;;18.25;12.15;;;5.20;94.10;;;;;;6276667;28;20055;-82
2023/03/08 06:58:14;;;;;;;23.30;12.48;;;5.10;94.60;;;;;;6277718;28;20060;-81
2023/03/08 07:01:16;;;;;;;19.95;13.60;;;5.00;94.90;;;;;;6276322;28;20060;-82
2023/03/08 07:04:18;;;;;;;19.05;12.50;;;4.90;95.30;;;;;;6277006;28;20422;-81
2023/03/08 07:07:19;;;;;;;20.23;14.00;;;4.80;95.80;;;;;;6279789;28;20048;-82
2023/03/08 07:10:22;;;;;;;23.45;13.00;;;4.80;96.20;;;;;;6280799;28;20052;-82
2023/03/08 07:13:25;;;;;;;19.38;12.30;;;4.70;96.60;;;;;;6281171;28;20045;-82
2023/03/08 07:16:28;;;;;;;21.02;14.10;;;4.60;96.90;;;;;;6287457;28;20045;-83
2023/03/08 07:19:31;;;;;;;23.85;13.70;;;4.50;97.20;;;;;;6287043;28;20122;-81
2023/03/08 07:22:33;;;;;;;21.98;13.38;;;4.60;97.60;;;;;;6267852;28;20052;-80
2023/03/08 07:25:37;;;;;;;24.40;13.00;;;4.50;98.00;;;;;;6287141;28;20484;-83
2023/03/08 07:28:40;;;;;;;17.77;12.38;;;4.60;98.50;;;;;;6272823;28;20045;-80
2023/03/08 07:31:42;;;;;;;21.98;15.15;;;4.50;99.00;;;;;;6282604;28;20059;-80
2023/03/08 07:34:46;;;;;;;18.92;12.57;;;4.50;99.30;;;;;;6280582;28;20045;-83
2023/03/08 07:37:48;;;;;;;21.00;13.13;;;4.50;99.70;;;;;;6285855;28;20360;-83
2023/03/08 07:40:56;;;;;;;19.20;12.90;;;4.40;99.90;;;;;;6283589;28;20135;-83
2023/03/08 07:44:01;;;;;;;18.40;11.68;;;4.40;99.90;;;;;;6289627;28;20049;-83
2023/03/08 07:47:03;;;;;;;22.65;13.57;;;4.40;99.90;;;;;;6286576;28;20490;-80
2023/03/08 07:50:05;;;;;;;21.70;13.88;;;4.40;99.90;;;;;;6283594;28;20049;-80
2023/03/08 07:53:07;;;;;;;26.20;12.95;;;4.40;99.90;;;;;;6291038;28;20064;-82
2023/03/08 07:56:10;;;;;;;21.20;11.63;;;4.40;99.90;;;;;;6283939;28;20053;-82
2023/03/08 07:59:22;;;;;;;27.67;13.93;;;4.40;99.90;;;;;;6286268;28;20102;-83
2023/03/08 08:02:24;;;;;;;21.48;13.73;;;4.40;99.90;;;;;;6285734;28;20132;-82
2023/03/08 08:05:26;;;;;;;24.10;14.00;;;4.50;99.90;;;;;;6282427;28;20184;-81
2023/03/08 08:08:28;;;;;;;21.67;13.13;;;4.50;99.90;;;;;;6277840;28;20036;-81
2023/03/08 08:11:33;;;;;;;26.08;14.95;;;4.50;99.90;;;;;;6266033;28;20044;-81
2023/03/08 08:14:36;;;;;;;23.08;14.32;;;4.40;99.90;;;;;;6267520;28;20052;-80
2023/03/08 08:17:37;;;;;;;21.15;14.95;;;4.40;99.90;;;;;;6271585;28;20058;-81
2023/03/08 08:20:39;;;;;;;24.73;13.60;;;4.40;99.90;;;;;;6268204;28;20467;-81
2023/03/08 08:23:42;;;;;;;23.30;14.38;;;4.40;99.90;;;;;;6267051;28;20051;-83
2023/03/08 08:26:44;;;;;;;28.60;12.00;;;4.40;99.90;;;;;;6268781;28;20049;-79
2023/03/08 08:29:49;;;;;;;28.65;14.80;;;4.40;99.90;;;;;;6271942;28;20053;-80
2023/03/08 08:32:51;;;;;;;19.20;10.93;;;4.30;99.90;;;;;;6272632;28;20061;-83
2023/03/08 08:35:53;;;;;;;14.05;8.77;;;4.20;99.90;;;;;;6270966;28;20113;-83
2023/03/08 08:38:54;;;;;;;15.15;6.75;;;4.20;99.90;;;;;;6277183;28;20049;-83
2023/03/08 08:41:56;;;;;;;6.90;4.68;;;4.10;99.90;;;;;;6274654;28;20056;-80
2023/03/08 08:44:59;;;;;;;0.32;0.32;;;4.10;99.90;;;;;;6270606;28;20049;-82
2023/03/08 08:48:01;;;;;;;0.60;0.60;;;4.00;99.90;;;;;;6269503;28;20045;-81
2023/03/08 08:51:03;;;;;;;0.20;0.20;;;4.00;99.90;;;;;;6272985;28;20052;-81
2023/03/08 08:54:04;;;;;;;0.25;0.25;;;3.80;99.90;;;;;;6269985;28;20045;-81
2023/03/08 08:57:06;;;;;;;1.50;1.50;;;4.00;99.90;;;;;;6267667;28;20061;-84
2023/03/08 09:00:11;;;;;;;0.25;0.25;;;3.90;99.90;;;;;;6269301;28;20125;-82
2023/03/08 09:03:13;;;;;;;0.40;0.40;;;3.90;99.90;;;;;;6269085;28;20597;-83
2023/03/08 09:06:16;;;;;;;0.40;0.40;;;3.90;99.90;;;;;;6269096;28;20041;-80
2023/03/08 09:09:18;;;;;;;0.50;0.50;;;3.90;99.90;;;;;;6266299;28;20045;-81
2023/03/08 09:12:20;;;;;;;0.32;0.32;;;4.00;99.90;;;;;;6267264;28;20070;-81
2023/03/08 09:15:25;;;;;;;0.40;0.40;;;3.90;99.90;;;;;;6272317;28;20380;-83
2023/03/08 09:18:27;;;;;;;0.30;0.30;;;4.00;99.90;;;;;;6270398;28;20048;-82
2023/03/08 09:21:30;;;;;;;0.50;0.50;;;4.10;99.90;;;;;;6266807;28;20049;-83
2023/03/08 09:24:31;;;;;;;0.43;0.43;;;4.10;99.90;;;;;;6270958;28;20048;-82
2023/03/08 09:27:33;;;;;;;0.50;0.50;;;4.10;99.90;;;;;;6273821;28;20396;-79
2023/03/08 09:30:36;;;;;;;0.30;0.30;;;4.10;99.90;;;;;;6271174;28;20043;-80
2023/03/08 09:33:39;;;;;;;0.30;0.30;;;4.20;99.90;;;;;;6276905;28;20056;-83
2023/03/08 09:36:42;;;;;;;0.30;0.30;;;4.30;99.90;;;;;;6273624;28;20049;-79
2023/03/08 09:39:43;;;;;;;0.22;0.22;;;4.40;99.90;;;;;;6277142;28;20673;-80
2023/03/08 09:42:47;;;;;;;0.52;0.52;;;4.50;99.90;;;;;;6273551;28;20045;-81
2023/03/08 09:45:54;;;;;;;0.50;0.50;;;4.60;99.90;;;;;;6274410;28;20045;-81
2023/03/08 09:48:59;;;;;;;0.40;0.40;;;4.70;99.90;;;;;;6275791;28;20069;-80
2023/03/08 09:52:07;;;;;;;0.38;0.38;;;4.70;99.90;;;;;;6275701;28;20046;-80
2023/03/08 09:55:15;;;;;;;0.30;0.30;;;4.70;99.90;;;;;;6270688;28;20049;-80
2023/03/08 09:58:27;;;;;;;0.47;0.47;;;4.80;99.90;;;;;;6275824;28;20051;-80
2023/03/08 10:01:38;;;;;;;0.40;0.40;;;4.90;99.90;;;;;;6284014;28;20045;-81
2023/03/08 10:04:49;;;;;;;0.30;0.30;;;4.90;99.90;;;;;;6285337;28;20061;-80
2023/03/08 10:07:57;;;;;;;0.20;0.20;;;5.00;99.90;;;;;;6284774;28;20067;-79
2023/03/08 10:11:02;;;;;;;0.30;0.30;;;5.00;99.90;;;;;;6284754;28;20041;-81
2023/03/08 10:14:12;;;;;;;0.50;0.50;;;5.00;99.90;;;;;;6286185;28;20053;-79
2023/03/08 10:17:19;;;;;;;0.30;0.30;;;5.10;99.90;;;;;;6283506;28;20063;-80
2023/03/08 10:20:24;;;;;;;0.45;0.45;;;5.10;99.90;;;;;;6284362;28;20047;-80
2023/03/08 10:23:31;;;;;;;0.40;0.40;;;5.20;99.90;;;;;;6285274;28;20076;-80
2023/03/08 10:26:33;;;;;;;0.35;0.35;;;5.30;99.90;;;;;;6284596;28;20114;-79
2023/03/08 10:29:35;;;;;;;0.40;0.40;;;5.40;99.90;;;;;;6285865;28;20052;-80
2023/03/08 10:32:43;;;;;;;0.20;0.20;;;5.40;99.90;;;;;;6285669;28;20056;-78
2023/03/08 10:35:53;;;;;;;;;;;5.50;99.90;;;;;;6285243;28;20044;-81
2023/03/08 10:39:01;;;;;;;0.30;0.30;;;5.60;99.90;;;;;;6284577;28;20102;-82
2023/03/08 10:42:14;;;;;;;0.30;0.30;;;5.60;99.90;;;;;;6284264;28;20067;-78
2023/03/08 10:45:20;;;;;;;0.30;0.30;;;5.60;99.90;;;;;;6283789;28;20667;-83
2023/03/08 10:48:23;;;;;;;0.30;0.30;;;5.70;99.90;;;;;;6285652;28;20045;-81
2023/03/08 10:51:29;;;;;;;0.22;0.22;;;5.80;99.90;;;;;;6284544;28;20045;-81
2023/03/08 10:54:31;;;;;;;0.30;0.30;;;5.90;99.90;;;;;;6284721;28;20049;-81
2023/03/08 10:57:33;;;;;;;0.32;0.32;;;6.00;99.90;;;;;;6284616;28;20049;-81
2023/03/08 11:00:36;;;;;;;0.30;0.30;;;6.00;99.90;;;;;;6284282;28;20045;-82
2023/03/08 11:03:39;;;;;;;0.38;0.38;;;6.00;99.90;;;;;;6283701;28;20041;-80
2023/03/08 11:06:41;;;;;;;0.30;0.30;;;6.20;99.90;;;;;;6283871;28;20052;-81
2023/03/08 11:09:43;;;;;;;0.68;0.68;;;6.50;99.90;;;;;;6283691;28;20055;-81
2023/03/08 11:12:45;;;;;;;0.28;0.28;;;6.90;99.90;;;;;;6283312;28;20055;-81
2023/03/08 11:15:54;;;;;;;0.38;0.38;;;7.30;99.90;;;;;;6282925;28;20071;-81
2023/03/08 11:19:06;;;;;;;0.40;0.40;;;7.60;99.90;;;;;;6282450;28;20172;-80
2023/03/08 11:22:21;;;;;;;0.32;0.32;;;7.90;99.90;;;;;;6283044;28;20421;-83
2023/03/08 11:25:42;;;;;;;0.73;0.73;;;8.10;99.90;;;;;;6282545;28;20404;-83
2023/03/08 11:28:56;;;;;;;0.50;0.50;;;8.30;99.90;;;;;;6282905;28;20154;-81
2023/03/08 11:32:04;;;;;;;0.35;0.35;;;8.40;99.90;;;;;;6282118;28;20060;-81
2023/03/08 11:35:24;;;;;;;0.30;0.30;;;8.50;99.90;;;;;;6283840;28;20064;-81
2023/03/08 11:38:28;;;;;;;0.30;0.30;;;8.60;99.90;;;;;;6284049;28;20049;-81
2023/03/08 11:41:41;;;;;;;0.40;0.40;;;8.70;99.90;;;;;;6283412;28;20045;-83
2023/03/08 11:45:13;;;;;;;0.40;0.40;;;8.90;99.90;;;;;;6284167;28;20049;-82
2023/03/08 11:48:37;;;;;;;0.30;0.30;;;9.00;99.90;;;;;;6275976;28;20057;-83
2023/03/08 11:51:48;;;;;;;3.45;2.03;;;9.10;99.90;;;;;;6261930;28;20052;-80
2023/03/08 11:55:01;;;;;;;3.30;2.58;;;9.20;99.90;;;;;;6263354;28;20049;-80
2023/03/08 11:58:11;;;;;;;4.75;3.22;;;9.40;99.90;;;;;;6237852;28;20061;-82
2023/03/08 12:01:18;;;;;;;6.10;3.03;;;9.50;99.90;;;;;;6217998;28;20042;-83
2023/03/08 12:04:26;;;;;;;2.75;2.47;;;9.60;99.90;;;;;;6215438;28;20504;-83
2023/03/08 12:11:38;;;;;;;3.30;2.83;;;9.80;99.90;;;;;;6222681;28;20092;-83
2023/03/08 12:14:49;;;;;;;5.18;2.53;;;10.00;99.90;;;;;;6219063;28;20045;-83
2023/03/08 12:17:55;;;;;;;4.45;2.30;;;10.00;99.90;;;;;;6220068;28;20133;-82
2023/03/08 12:21:05;;;;;;;3.28;2.03;;;10.20;99.90;;;;;;6232206;28;20038;-83
2023/03/08 12:24:24;;;;;;;3.88;2.90;;;10.30;99.90;;;;;;6247843;28;20064;-82
2023/03/08 12:27:32;;;;;;;5.03;2.15;;;10.40;99.90;;;;;;6246444;28;20053;-83
2023/03/08 12:30:44;;;;;;;6.47;5.97;;;10.50;99.90;;;;;;6254793;28;20045;-83
2023/03/08 12:33:46;;;;;;;3.05;2.60;;;10.60;99.90;;;;;;6253857;28;20053;-83
2023/03/08 12:36:48;;;;;;;3.78;3.33;;;10.70;99.90;;;;;;6244969;28;20052;-81
2023/03/08 12:39:58;;;;;;;4.18;3.13;;;10.80;99.90;;;;;;6253377;28;20045;-82
2023/03/08 12:43:11;;;;;;;3.63;2.67;;;11.00;99.90;;;;;;6253350;28;20056;-83
2023/03/08 12:46:12;;;;;;;2.95;2.13;;;11.00;99.90;;;;;;6235721;28;20054;-81
2023/03/08 12:49:20;;;;;;;3.85;2.00;;;11.10;99.90;;;;;;6233290;28;20041;-82
2023/03/08 12:52:30;;;;;;;3.08;2.22;;;11.20;99.90;;;;;;6253874;28;20041;-83
2023/03/08 12:55:33;;;;;;;3.63;1.80;;;11.40;99.90;;;;;;6253609;28;20045;-82
2023/03/08 12:58:39;;;;;;;2.72;1.88;;;11.50;99.90;;;;;;6253386;28;20060;-81
2023/03/08 13:01:43;;;;;;;12.38;9.68;;;11.60;99.90;;;;;;6255300;28;20072;-83
2023/03/08 13:04:45;;;;;;;6.25;4.68;;;11.70;99.90;;;;;;6253015;28;20044;-82
2023/03/08 13:08:01;;;;;;;1.83;1.70;;;11.80;99.90;;;;;;6236128;28;20045;-79
2023/03/08 13:11:08;;;;;;;1.83;1.52;;;11.80;99.90;;;;;;6229516;28;20501;-83
2023/03/08 13:14:26;;;;;;;2.20;1.85;;;11.90;99.90;;;;;;6229098;28;20054;-83
2023/03/08 13:17:34;;;;;;;2.83;2.63;;;12.00;99.90;;;;;;6228687;28;20061;-83
2023/03/08 13:21:01;;;;;;;1.58;1.48;;;12.00;99.90;;;;;;6232226;28;20061;-83
2023/03/08 13:24:22;;;;;;;1.88;1.35;;;11.90;99.90;;;;;;6238648;28;20122;-84
2023/03/08 13:27:34;;;;;;;1.80;1.35;;;11.90;99.90;;;;;;6231117;28;20038;-84
2023/03/08 13:30:45;;;;;;;3.75;1.63;;;11.80;99.90;;;;;;6230494;28;20057;-83
2023/03/08 13:33:49;;;;;;;1.42;0.90;;;11.80;99.90;;;;;;6232724;28;20096;-84
2023/03/08 13:36:51;;;;;;;1.50;1.40;;;11.70;99.90;;;;;;6241810;28;20065;-83
2023/03/08 13:39:54;;;;;;;2.38;2.08;;;11.60;99.90;;;;;;6231488;28;20046;-82
2023/03/08 13:42:57;;;;;;;3.33;2.85;;;11.50;99.90;;;;;;6240914;28;20042;-83
2023/03/08 13:46:02;;;;;;;1.77;1.63;;;11.30;99.90;;;;;;6252518;28;20488;-80
2023/03/08 13:49:04;;;;;;;1.58;1.48;;;11.20;99.90;;;;;;6251997;28;20049;-83
2023/03/08 13:52:16;;;;;;;2.78;2.58;;;11.10;99.90;;;;;;6228969;28;20385;-80
2023/03/08 13:55:21;;;;;;;2.78;1.35;;;11.00;99.90;;;;;;6233522;28;20045;-79
2023/03/08 13:58:31;;;;;;;1.50;1.40;;;11.00;99.90;;;;;;6232814;28;20140;-80
2023/03/08 14:01:34;;;;;;;3.53;3.33;;;11.00;99.90;;;;;;6203704;28;20053;-82
2023/03/08 14:04:35;;;;;;;2.38;2.17;;;11.10;99.90;;;;;;6201593;28;20046;-80
2023/03/08 14:07:37;;;;;;;16.40;8.68;;;11.10;99.90;;;;;;6206883;28;20057;-79
2023/03/08 14:10:41;;;;;;;19.10;10.90;;;10.90;99.90;;;;;;6207064;28;20047;-78
2023/03/08 14:13:47;;;;;;;6.85;4.47;;;10.60;99.90;;;;;;6206408;28;20042;-80
2023/03/08 14:16:52;;;;;;;3.33;1.63;;;10.60;99.90;;;;;;6212451;28;20427;-78
2023/03/08 14:19:56;;;;;;;3.85;2.42;;;10.60;99.90;;;;;;6212744;28;20038;-80
2023/03/08 14:22:58;;;;;;;1.50;1.40;;;10.60;99.90;;;;;;6213272;28;20061;-80
2023/03/08 14:26:00;;;;;;;1.90;1.38;;;10.60;99.90;;;;;;6212050;28;20045;-80
2023/03/08 14:29:13;;;;;;;1.30;1.20;;;10.70;99.90;;;;;;6211204;28;20053;-79
2023/03/08 14:32:30;;;;;;;1.77;1.10;;;10.70;99.90;;;;;;6214834;28;20093;-82
2023/03/08 14:35:35;;;;;;;1.38;1.02;;;10.80;99.90;;;;;;6211900;28;20054;-77
2023/03/08 14:38:37;;;;;;;1.23;1.13;;;11.00;99.90;;;;;;6215692;28;20060;-79
2023/03/08 14:41:39;;;;;;;3.05;1.83;;;11.10;99.90;;;;;;6212096;28;20053;-79
2023/03/08 14:44:41;;;;;;;2.53;1.38;;;11.30;99.90;;;;;;6224852;28;20037;-79
2023/03/08 14:47:51;;;;;;;0.93;0.90;;;11.30;99.90;;;;;;6222601;28;20056;-79
2023/03/08 14:51:02;;;;;;;3.20;1.35;;;11.40;99.90;;;;;;6230297;28;20051;-79
2023/03/08 14:54:07;;;;;;;1.38;1.20;;;11.50;99.90;;;;;;6216855;28;20121;-79
2023/03/08 14:57:17;;;;;;;1.80;1.70;;;11.60;99.90;;;;;;6223727;28;20045;-80
2023/03/08 15:00:21;;;;;;;2.38;1.08;;;11.70;99.90;;;;;;6223604;28;20064;-78
2023/03/08 15:03:24;;;;;;;1.77;1.67;;;11.80;99.90;;;;;;6219353;28;20419;-80
2023/03/08 15:06:28;;;;;;;3.63;1.00;;;11.90;99.90;;;;;;6219931;28;20073;-80
2023/03/08 15:09:31;;;;;;;0.52;0.52;;;11.90;99.90;;;;;;6215883;28;20049;-79
2023/03/08 15:12:32;;;;;;;1.45;1.35;;;12.00;99.90;;;;;;6216322;28;20050;-80
2023/03/08 15:15:34;;;;;;;3.00;0.88;;;12.00;99.90;;;;;;6212867;28;20049;-80
2023/03/08 15:18:37;;;;;;;1.65;0.98;;;12.00;99.90;;;;;;6216026;28;20058;-80
2023/03/08 15:21:39;;;;;;;0.95;0.75;;;12.00;99.90;;;;;;6216167;28;20038;-80
2023/03/08 15:24:41;;;;;;;0.55;0.55;;;12.00;99.90;;;;;;6220483;28;20183;-81
2023/03/08 15:27:43;;;;;;;1.55;0.90;;;12.00;99.90;;;;;;6224310;28;20056;-82
2023/03/08 15:30:45;;;;;;;1.23;0.85;;;12.00;99.90;;;;;;6221454;28;20492;-80
2023/03/08 15:33:48;;;;;;;1.42;0.73;;;12.00;99.90;;;;;;6221423;28;20477;-80
2023/03/08 15:36:53;;;;;;;0.70;0.70;;;12.10;99.90;;;;;;6215650;28;20056;-78
2023/03/08 15:39:54;;;;;;;1.15;1.05;;;12.20;99.90;;;;;;6224322;28;20038;-83
2023/03/08 15:43:06;;;;;;;1.20;1.05;;;12.30;99.90;;;;;;6225810;28;20053;-80
2023/03/08 15:46:10;;;;;;;2.22;1.20;;;12.40;99.90;;;;;;6223679;28;20057;-81
2023/03/08 15:49:13;;;;;;;1.38;1.20;;;12.40;99.90;;;;;;6219816;28;20389;-80
2023/03/08 15:52:15;;;;;;;0.73;0.73;;;12.50;99.90;;;;;;6223068;28;20056;-83
2023/03/08 15:55:16;;;;;;;1.17;1.08;;;12.50;99.90;;;;;;6224166;28;20293;-79
2023/03/08 15:58:18;;;;;;;1.38;0.93;;;12.60;99.90;;;;;;6221734;28;20057;-81
2023/03/08 16:01:21;;;;;;;0.95;0.65;;;12.60;99.90;;;;;;6224134;28;20042;-81
2023/03/08 16:04:24;;;;;;;3.15;2.95;;;12.70;99.90;;;;;;6223678;28;20041;-82